Ardsley, New York
Current Conditions -  °F | °C
As of 11:56 AM on Saturday 25 Oct 2014 (Local Time) from KHPN Reporting Station
Few Clouds Few Clouds  
Wind Chill: 16°   Ceiling: Unl
Heat Index: 16°   Visibility: 10mi
Dew Point:   Wind: 13mph
Humidity: 51%   Direction: 290°WNW
Pressure: 29.8"   Gusts: NA
Location:  41.01°N, 73.84°W
Report Text: KHPN 251556Z 29011KT 10SM FEW080 16/06 A2980 RMK AO2 SLP091 T01560056
Loading
Personal Weather Stations






























Interactive Weather Map
Tropical Storm Tracking
New forecast layout! Learn more

10-Day Weather Forecast

Advertisements
Track Severe Weather on mobile